sensor_id;sensor_type;location;lat;lon;timestamp;P1;durP1;ratioP1;P2;durP2;ratioP2
22687;SDS011;11511;51.514;7.080;2023-05-16T01:08:40;5.82;;;4.75;;
22687;SDS011;11511;51.514;7.080;2023-05-16T01:17:16;11.32;;;5.47;;
22687;SDS011;11511;51.514;7.080;2023-05-16T01:22:52;7.45;;;4.78;;
22687;SDS011;11511;51.514;7.080;2023-05-16T01:28:32;8.93;;;5.00;;
22687;SDS011;11511;51.514;7.080;2023-05-16T01:30:59;11.38;;;5.13;;
22687;SDS011;11511;51.514;7.080;2023-05-16T01:33:26;10.63;;;4.20;;
22687;SDS011;11511;51.514;7.080;2023-05-16T01:35:58;15.70;;;5.13;;
22687;SDS011;11511;51.514;7.080;2023-05-16T01:38:53;13.80;;;4.97;;
22687;SDS011;11511;51.514;7.080;2023-05-16T01:42:09;12.32;;;4.75;;
22687;SDS011;11511;51.514;7.080;2023-05-16T01:44:45;11.70;;;4.57;;
22687;SDS011;11511;51.514;7.080;2023-05-16T01:47:20;8.20;;;3.53;;
22687;SDS011;11511;51.514;7.080;2023-05-16T01:58:09;13.50;;;4.57;;
22687;SDS011;11511;51.514;7.080;2023-05-16T02:00:41;16.30;;;3.90;;
22687;SDS011;11511;51.514;7.080;2023-05-16T02:03:13;13.85;;;4.40;;
22687;SDS011;11511;51.514;7.080;2023-05-16T02:05:40;13.20;;;4.25;;
22687;SDS011;11511;51.514;7.080;2023-05-16T02:08:09;13.32;;;4.60;;
22687;SDS011;11511;51.514;7.080;2023-05-16T02:10:41;19.13;;;5.05;;
22687;SDS011;11511;51.514;7.080;2023-05-16T02:13:07;20.48;;;4.50;;
22687;SDS011;11511;51.514;7.080;2023-05-16T02:15:39;15.48;;;4.72;;
22687;SDS011;11511;51.514;7.080;2023-05-16T02:18:05;16.35;;;5.10;;
22687;SDS011;11511;51.514;7.080;2023-05-16T02:20:36;15.80;;;5.30;;
22687;SDS011;11511;51.514;7.080;2023-05-16T02:23:03;22.77;;;5.55;;
22687;SDS011;11511;51.514;7.080;2023-05-16T02:25:30;15.80;;;5.90;;
22687;SDS011;11511;51.514;7.080;2023-05-16T02:27:56;16.65;;;6.32;;
22687;SDS011;11511;51.514;7.080;2023-05-16T02:30:28;12.52;;;5.25;;
22687;SDS011;11511;51.514;7.080;2023-05-16T02:32:58;18.30;;;5.80;;
22687;SDS011;11511;51.514;7.080;2023-05-16T02:35:24;19.70;;;5.95;;
22687;SDS011;11511;51.514;7.080;2023-05-16T02:37:50;18.92;;;6.03;;
22687;SDS011;11511;51.514;7.080;2023-05-16T02:40:17;18.83;;;5.70;;
22687;SDS011;11511;51.514;7.080;2023-05-16T02:42:43;17.75;;;5.32;;
22687;SDS011;11511;51.514;7.080;2023-05-16T02:45:15;16.75;;;5.93;;
22687;SDS011;11511;51.514;7.080;2023-05-16T02:47:44;22.40;;;5.18;;
22687;SDS011;11511;51.514;7.080;2023-05-16T02:50:10;15.48;;;5.07;;
22687;SDS011;11511;51.514;7.080;2023-05-16T02:52:36;19.70;;;5.25;;
22687;SDS011;11511;51.514;7.080;2023-05-16T02:55:03;19.08;;;6.03;;
22687;SDS011;11511;51.514;7.080;2023-05-16T02:57:30;21.48;;;5.60;;
22687;SDS011;11511;51.514;7.080;2023-05-16T03:00:03;20.55;;;5.20;;
22687;SDS011;11511;51.514;7.080;2023-05-16T03:02:33;21.73;;;5.50;;
22687;SDS011;11511;51.514;7.080;2023-05-16T03:05:03;16.83;;;5.22;;
22687;SDS011;11511;51.514;7.080;2023-05-16T03:07:30;22.73;;;5.07;;
22687;SDS011;11511;51.514;7.080;2023-05-16T03:09:56;20.17;;;4.53;;
22687;SDS011;11511;51.514;7.080;2023-05-16T03:12:21;16.40;;;4.95;;
22687;SDS011;11511;51.514;7.080;2023-05-16T03:14:48;13.52;;;4.30;;
22687;SDS011;11511;51.514;7.080;2023-05-16T03:17:14;16.42;;;4.65;;
22687;SDS011;11511;51.514;7.080;2023-05-16T03:19:40;24.13;;;5.10;;
22687;SDS011;11511;51.514;7.080;2023-05-16T03:22:05;21.00;;;4.88;;
22687;SDS011;11511;51.514;7.080;2023-05-16T03:24:31;20.83;;;5.13;;
22687;SDS011;11511;51.514;7.080;2023-05-16T03:26:57;13.00;;;4.18;;
22687;SDS011;11511;51.514;7.080;2023-05-16T03:29:24;17.80;;;4.60;;
22687;SDS011;11511;51.514;7.080;2023-05-16T03:31:51;21.23;;;3.90;;
22687;SDS011;11511;51.514;7.080;2023-05-16T03:34:17;17.98;;;4.40;;
22687;SDS011;11511;51.514;7.080;2023-05-16T03:36:43;20.70;;;4.30;;
22687;SDS011;11511;51.514;7.080;2023-05-16T03:39:13;22.38;;;6.13;;
22687;SDS011;11511;51.514;7.080;2023-05-16T03:41:43;18.17;;;4.82;;
22687;SDS011;11511;51.514;7.080;2023-05-16T03:44:16;20.80;;;4.28;;
22687;SDS011;11511;51.514;7.080;2023-05-16T03:46:42;17.80;;;4.25;;
22687;SDS011;11511;51.514;7.080;2023-05-16T03:49:09;17.83;;;4.07;;
22687;SDS011;11511;51.514;7.080;2023-05-16T03:51:35;32.72;;;4.82;;
22687;SDS011;11511;51.514;7.080;2023-05-16T03:54:01;15.85;;;4.28;;
22687;SDS011;11511;51.514;7.080;2023-05-16T03:56:30;13.18;;;3.90;;
22687;SDS011;11511;51.514;7.080;2023-05-16T03:58:56;20.60;;;4.40;;
22687;SDS011;11511;51.514;7.080;2023-05-16T04:01:22;17.50;;;4.22;;
22687;SDS011;11511;51.514;7.080;2023-05-16T04:03:49;18.95;;;4.70;;
22687;SDS011;11511;51.514;7.080;2023-05-16T04:06:15;26.30;;;5.20;;
22687;SDS011;11511;51.514;7.080;2023-05-16T04:08:45;17.67;;;4.30;;
22687;SDS011;11511;51.514;7.080;2023-05-16T04:11:14;18.65;;;4.57;;
22687;SDS011;11511;51.514;7.080;2023-05-16T04:13:40;21.10;;;4.00;;
22687;SDS011;11511;51.514;7.080;2023-05-16T04:16:06;16.00;;;3.90;;
22687;SDS011;11511;51.514;7.080;2023-05-16T04:18:32;19.33;;;3.92;;
22687;SDS011;11511;51.514;7.080;2023-05-16T04:20:58;21.35;;;4.05;;
22687;SDS011;11511;51.514;7.080;2023-05-16T04:23:27;24.67;;;4.68;;
22687;SDS011;11511;51.514;7.080;2023-05-16T04:25:55;15.32;;;4.10;;
22687;SDS011;11511;51.514;7.080;2023-05-16T04:28:24;14.90;;;3.72;;
22687;SDS011;11511;51.514;7.080;2023-05-16T04:30:50;12.57;;;3.85;;
22687;SDS011;11511;51.514;7.080;2023-05-16T04:33:19;16.98;;;3.67;;
22687;SDS011;11511;51.514;7.080;2023-05-16T04:35:47;23.65;;;3.90;;
22687;SDS011;11511;51.514;7.080;2023-05-16T04:38:17;19.15;;;3.70;;
22687;SDS011;11511;51.514;7.080;2023-05-16T04:40:44;18.35;;;2.90;;
22687;SDS011;11511;51.514;7.080;2023-05-16T04:43:14;11.25;;;3.78;;
22687;SDS011;11511;51.514;7.080;2023-05-16T04:45:40;13.48;;;3.25;;
22687;SDS011;11511;51.514;7.080;2023-05-16T04:48:07;23.60;;;4.07;;
22687;SDS011;11511;51.514;7.080;2023-05-16T04:50:33;15.02;;;2.83;;
22687;SDS011;11511;51.514;7.080;2023-05-16T04:53:00;18.42;;;3.90;;
22687;SDS011;11511;51.514;7.080;2023-05-16T04:55:26;14.65;;;3.72;;
22687;SDS011;11511;51.514;7.080;2023-05-16T04:57:51;13.30;;;3.35;;
22687;SDS011;11511;51.514;7.080;2023-05-16T05:00:18;14.07;;;3.30;;
22687;SDS011;11511;51.514;7.080;2023-05-16T05:02:53;15.82;;;3.10;;
22687;SDS011;11511;51.514;7.080;2023-05-16T05:05:19;15.82;;;3.40;;
22687;SDS011;11511;51.514;7.080;2023-05-16T05:07:45;16.08;;;3.38;;
22687;SDS011;11511;51.514;7.080;2023-05-16T05:10:11;14.73;;;2.80;;
22687;SDS011;11511;51.514;7.080;2023-05-16T05:12:37;13.60;;;3.20;;
22687;SDS011;11511;51.514;7.080;2023-05-16T05:15:03;11.27;;;2.97;;
22687;SDS011;11511;51.514;7.080;2023-05-16T05:17:30;21.85;;;3.05;;
22687;SDS011;11511;51.514;7.080;2023-05-16T05:19:56;12.20;;;2.60;;
22687;SDS011;11511;51.514;7.080;2023-05-16T05:22:22;13.05;;;3.10;;
22687;SDS011;11511;51.514;7.080;2023-05-16T05:24:47;11.20;;;2.90;;
22687;SDS011;11511;51.514;7.080;2023-05-16T05:27:13;17.88;;;3.33;;
22687;SDS011;11511;51.514;7.080;2023-05-16T05:29:39;13.90;;;2.60;;
22687;SDS011;11511;51.514;7.080;2023-05-16T05:32:08;11.13;;;2.83;;
22687;SDS011;11511;51.514;7.080;2023-05-16T05:34:35;16.02;;;2.65;;
22687;SDS011;11511;51.514;7.080;2023-05-16T05:40:41;14.15;;;3.33;;
22687;SDS011;11511;51.514;7.080;2023-05-16T05:53:05;15.05;;;2.53;;
22687;SDS011;11511;51.514;7.080;2023-05-16T05:55:31;14.18;;;3.05;;
22687;SDS011;11511;51.514;7.080;2023-05-16T05:57:58;12.25;;;2.53;;
22687;SDS011;11511;51.514;7.080;2023-05-16T06:06:44;11.70;;;2.25;;
22687;SDS011;11511;51.514;7.080;2023-05-16T06:09:16;16.17;;;2.83;;
22687;SDS011;11511;51.514;7.080;2023-05-16T06:11:46;11.20;;;2.08;;
22687;SDS011;11511;51.514;7.080;2023-05-16T06:14:13;12.73;;;2.30;;
22687;SDS011;11511;51.514;7.080;2023-05-16T06:16:43;6.20;;;1.80;;
22687;SDS011;11511;51.514;7.080;2023-05-16T06:19:09;16.23;;;2.53;;
22687;SDS011;11511;51.514;7.080;2023-05-16T06:21:40;11.65;;;2.10;;
22687;SDS011;11511;51.514;7.080;2023-05-16T06:24:07;17.42;;;2.83;;
22687;SDS011;11511;51.514;7.080;2023-05-16T06:26:34;12.48;;;2.30;;
22687;SDS011;11511;51.514;7.080;2023-05-16T06:29:01;12.88;;;2.15;;
22687;SDS011;11511;51.514;7.080;2023-05-16T06:31:30;13.38;;;2.65;;
22687;SDS011;11511;51.514;7.080;2023-05-16T06:34:14;16.33;;;2.47;;
22687;SDS011;11511;51.514;7.080;2023-05-16T06:36:40;15.98;;;2.60;;
22687;SDS011;11511;51.514;7.080;2023-05-16T06:39:07;10.05;;;2.08;;
22687;SDS011;11511;51.514;7.080;2023-05-16T06:41:33;10.32;;;1.70;;
22687;SDS011;11511;51.514;7.080;2023-05-16T06:44:00;9.43;;;1.92;;
22687;SDS011;11511;51.514;7.080;2023-05-16T06:46:26;8.95;;;1.55;;
22687;SDS011;11511;51.514;7.080;2023-05-16T06:48:52;5.82;;;1.50;;
22687;SDS011;11511;51.514;7.080;2023-05-16T06:51:25;8.80;;;1.55;;
22687;SDS011;11511;51.514;7.080;2023-05-16T06:53:55;9.70;;;1.60;;
22687;SDS011;11511;51.514;7.080;2023-05-16T06:56:25;15.00;;;2.55;;
22687;SDS011;11511;51.514;7.080;2023-05-16T06:58:56;7.55;;;1.52;;
22687;SDS011;11511;51.514;7.080;2023-05-16T07:01:26;9.23;;;2.03;;
22687;SDS011;11511;51.514;7.080;2023-05-16T07:03:53;14.30;;;1.90;;
22687;SDS011;11511;51.514;7.080;2023-05-16T07:06:19;7.50;;;1.70;;
22687;SDS011;11511;51.514;7.080;2023-05-16T07:08:46;5.85;;;1.60;;
22687;SDS011;11511;51.514;7.080;2023-05-16T07:11:13;6.93;;;1.45;;
22687;SDS011;11511;51.514;7.080;2023-05-16T07:13:49;7.18;;;1.60;;
22687;SDS011;11511;51.514;7.080;2023-05-16T07:16:16;8.80;;;1.73;;
22687;SDS011;11511;51.514;7.080;2023-05-16T07:18:43;8.23;;;1.50;;
22687;SDS011;11511;51.514;7.080;2023-05-16T07:21:13;11.73;;;1.65;;
22687;SDS011;11511;51.514;7.080;2023-05-16T07:23:43;9.63;;;1.95;;
22687;SDS011;11511;51.514;7.080;2023-05-16T07:26:09;9.65;;;1.92;;
22687;SDS011;11511;51.514;7.080;2023-05-16T07:28:39;6.95;;;1.23;;
22687;SDS011;11511;51.514;7.080;2023-05-16T07:31:11;9.88;;;1.70;;
22687;SDS011;11511;51.514;7.080;2023-05-16T07:33:41;8.75;;;1.50;;
22687;SDS011;11511;51.514;7.080;2023-05-16T07:36:12;8.95;;;1.10;;
22687;SDS011;11511;51.514;7.080;2023-05-16T07:38:42;8.50;;;1.20;;
22687;SDS011;11511;51.514;7.080;2023-05-16T07:41:11;7.97;;;1.98;;
22687;SDS011;11511;51.514;7.080;2023-05-16T07:43:38;10.95;;;1.40;;
22687;SDS011;11511;51.514;7.080;2023-05-16T07:46:12;7.78;;;1.30;;
22687;SDS011;11511;51.514;7.080;2023-05-16T07:48:44;28.02;;;2.20;;
22687;SDS011;11511;51.514;7.080;2023-05-16T07:51:12;5.85;;;1.17;;
22687;SDS011;11511;51.514;7.080;2023-05-16T07:53:41;6.75;;;1.25;;
22687;SDS011;11511;51.514;7.080;2023-05-16T07:56:10;7.28;;;1.10;;
22687;SDS011;11511;51.514;7.080;2023-05-16T07:58:37;7.13;;;1.10;;
22687;SDS011;11511;51.514;7.080;2023-05-16T08:01:04;6.40;;;1.48;;
22687;SDS011;11511;51.514;7.080;2023-05-16T08:03:33;8.63;;;1.48;;
22687;SDS011;11511;51.514;7.080;2023-05-16T08:06:03;4.40;;;1.08;;
22687;SDS011;11511;51.514;7.080;2023-05-16T08:08:32;17.95;;;2.05;;
22687;SDS011;11511;51.514;7.080;2023-05-16T08:10:58;9.43;;;1.35;;
22687;SDS011;11511;51.514;7.080;2023-05-16T08:13:25;4.10;;;1.00;;
22687;SDS011;11511;51.514;7.080;2023-05-16T08:15:57;5.05;;;1.48;;
22687;SDS011;11511;51.514;7.080;2023-05-16T08:18:24;15.07;;;2.28;;
22687;SDS011;11511;51.514;7.080;2023-05-16T08:20:50;4.40;;;1.20;;
22687;SDS011;11511;51.514;7.080;2023-05-16T08:23:20;5.43;;;1.20;;
22687;SDS011;11511;51.514;7.080;2023-05-16T08:25:47;6.85;;;1.08;;
22687;SDS011;11511;51.514;7.080;2023-05-16T08:28:13;6.68;;;1.10;;
22687;SDS011;11511;51.514;7.080;2023-05-16T08:30:42;5.97;;;1.23;;
22687;SDS011;11511;51.514;7.080;2023-05-16T08:33:22;5.55;;;1.60;;
22687;SDS011;11511;51.514;7.080;2023-05-16T08:35:49;4.95;;;1.20;;
22687;SDS011;11511;51.514;7.080;2023-05-16T08:38:17;6.40;;;0.90;;
22687;SDS011;11511;51.514;7.080;2023-05-16T08:40:43;6.28;;;0.90;;
22687;SDS011;11511;51.514;7.080;2023-05-16T08:43:13;6.65;;;1.17;;
22687;SDS011;11511;51.514;7.080;2023-05-16T08:45:47;5.32;;;0.90;;
22687;SDS011;11511;51.514;7.080;2023-05-16T08:48:21;2.42;;;0.90;;
22687;SDS011;11511;51.514;7.080;2023-05-16T08:51:02;7.15;;;1.10;;
22687;SDS011;11511;51.514;7.080;2023-05-16T08:56:49;5.38;;;1.10;;
22687;SDS011;11511;51.514;7.080;2023-05-16T08:59:28;6.03;;;0.90;;
22687;SDS011;11511;51.514;7.080;2023-05-16T09:01:58;5.10;;;1.30;;
22687;SDS011;11511;51.514;7.080;2023-05-16T09:04:29;7.90;;;1.00;;
22687;SDS011;11511;51.514;7.080;2023-05-16T09:06:59;6.18;;;1.08;;
22687;SDS011;11511;51.514;7.080;2023-05-16T09:09:26;5.82;;;1.00;;
22687;SDS011;11511;51.514;7.080;2023-05-16T09:11:55;3.67;;;0.75;;
22687;SDS011;11511;51.514;7.080;2023-05-16T09:14:22;3.70;;;1.10;;
22687;SDS011;11511;51.514;7.080;2023-05-16T09:17:13;2.58;;;0.82;;
22687;SDS011;11511;51.514;7.080;2023-05-16T09:22:29;4.30;;;1.00;;
22687;SDS011;11511;51.514;7.080;2023-05-16T09:25:03;2.92;;;0.65;;
22687;SDS011;11511;51.514;7.080;2023-05-16T09:27:39;4.75;;;1.00;;
22687;SDS011;11511;51.514;7.080;2023-05-16T09:30:14;7.53;;;1.10;;
22687;SDS011;11511;51.514;7.080;2023-05-16T09:32:46;6.68;;;1.00;;
22687;SDS011;11511;51.514;7.080;2023-05-16T09:35:33;4.15;;;1.20;;
22687;SDS011;11511;51.514;7.080;2023-05-16T09:38:00;5.03;;;1.20;;
22687;SDS011;11511;51.514;7.080;2023-05-16T09:40:31;2.67;;;0.98;;
22687;SDS011;11511;51.514;7.080;2023-05-16T09:43:09;4.38;;;1.20;;
22687;SDS011;11511;51.514;7.080;2023-05-16T09:45:44;5.07;;;1.10;;
22687;SDS011;11511;51.514;7.080;2023-05-16T09:48:14;5.45;;;1.10;;
22687;SDS011;11511;51.514;7.080;2023-05-16T09:50:54;4.70;;;1.17;;
22687;SDS011;11511;51.514;7.080;2023-05-16T09:53:30;4.28;;;0.82;;
22687;SDS011;11511;51.514;7.080;2023-05-16T09:56:01;3.25;;;0.93;;
22687;SDS011;11511;51.514;7.080;2023-05-16T09:58:36;8.07;;;1.10;;
22687;SDS011;11511;51.514;7.080;2023-05-16T10:01:18;2.97;;;0.80;;
22687;SDS011;11511;51.514;7.080;2023-05-16T10:03:52;5.32;;;1.10;;
22687;SDS011;11511;51.514;7.080;2023-05-16T10:06:24;5.00;;;1.10;;
22687;SDS011;11511;51.514;7.080;2023-05-16T10:08:54;5.57;;;1.30;;
22687;SDS011;11511;51.514;7.080;2023-05-16T10:11:26;3.38;;;0.90;;
22687;SDS011;11511;51.514;7.080;2023-05-16T10:13:56;5.82;;;1.42;;
22687;SDS011;11511;51.514;7.080;2023-05-16T10:19:19;4.40;;;0.90;;
22687;SDS011;11511;51.514;7.080;2023-05-16T10:21:50;2.70;;;0.60;;
22687;SDS011;11511;51.514;7.080;2023-05-16T10:24:25;4.25;;;0.93;;
22687;SDS011;11511;51.514;7.080;2023-05-16T10:27:16;2.85;;;0.70;;
22687;SDS011;11511;51.514;7.080;2023-05-16T10:29:48;3.47;;;0.93;;
22687;SDS011;11511;51.514;7.080;2023-05-16T10:32:19;3.65;;;1.05;;
22687;SDS011;11511;51.514;7.080;2023-05-16T10:34:51;6.18;;;0.80;;
22687;SDS011;11511;51.514;7.080;2023-05-16T10:37:17;3.05;;;0.98;;
22687;SDS011;11511;51.514;7.080;2023-05-16T10:39:42;3.10;;;0.70;;
22687;SDS011;11511;51.514;7.080;2023-05-16T10:42:08;5.65;;;0.90;;
22687;SDS011;11511;51.514;7.080;2023-05-16T10:44:34;4.43;;;0.90;;
22687;SDS011;11511;51.514;7.080;2023-05-16T10:47:04;2.90;;;0.88;;
22687;SDS011;11511;51.514;7.080;2023-05-16T10:49:30;4.78;;;0.90;;
22687;SDS011;11511;51.514;7.080;2023-05-16T10:57:09;4.77;;;0.87;;
22687;SDS011;11511;51.514;7.080;2023-05-16T10:59:44;4.05;;;0.82;;
22687;SDS011;11511;51.514;7.080;2023-05-16T11:02:22;6.60;;;1.30;;
22687;SDS011;11511;51.514;7.080;2023-05-16T11:04:59;5.10;;;1.13;;
22687;SDS011;11511;51.514;7.080;2023-05-16T11:07:33;5.20;;;1.20;;
22687;SDS011;11511;51.514;7.080;2023-05-16T11:10:02;4.47;;;0.75;;
22687;SDS011;11511;51.514;7.080;2023-05-16T11:15:25;3.78;;;0.82;;
22687;SDS011;11511;51.514;7.080;2023-05-16T11:18:03;4.65;;;1.10;;
22687;SDS011;11511;51.514;7.080;2023-05-16T11:20:34;2.58;;;0.68;;
22687;SDS011;11511;51.514;7.080;2023-05-16T11:23:18;3.90;;;0.80;;
22687;SDS011;11511;51.514;7.080;2023-05-16T11:25:48;5.25;;;0.90;;
22687;SDS011;11511;51.514;7.080;2023-05-16T11:28:19;4.63;;;0.80;;
22687;SDS011;11511;51.514;7.080;2023-05-16T11:30:50;4.57;;;0.70;;
22687;SDS011;11511;51.514;7.080;2023-05-16T11:33:22;3.92;;;0.80;;
22687;SDS011;11511;51.514;7.080;2023-05-16T11:36:06;3.40;;;0.88;;
22687;SDS011;11511;51.514;7.080;2023-05-16T11:38:37;2.63;;;0.88;;
22687;SDS011;11511;51.514;7.080;2023-05-16T11:41:19;3.22;;;0.77;;
22687;SDS011;11511;51.514;7.080;2023-05-16T11:43:47;5.50;;;0.98;;
22687;SDS011;11511;51.514;7.080;2023-05-16T11:46:16;2.60;;;1.05;;
22687;SDS011;11511;51.514;7.080;2023-05-16T11:48:48;6.57;;;0.85;;
22687;SDS011;11511;51.514;7.080;2023-05-16T11:51:29;2.78;;;0.60;;
22687;SDS011;11511;51.514;7.080;2023-05-16T11:53:59;2.90;;;0.95;;
22687;SDS011;11511;51.514;7.080;2023-05-16T11:56:36;4.40;;;0.82;;
22687;SDS011;11511;51.514;7.080;2023-05-16T11:59:08;2.72;;;0.60;;
22687;SDS011;11511;51.514;7.080;2023-05-16T12:01:42;3.78;;;0.70;;
22687;SDS011;11511;51.514;7.080;2023-05-16T12:04:14;3.58;;;0.88;;
22687;SDS011;11511;51.514;7.080;2023-05-16T12:06:41;2.20;;;0.63;;
22687;SDS011;11511;51.514;7.080;2023-05-16T12:09:13;4.45;;;0.73;;
22687;SDS011;11511;51.514;7.080;2023-05-16T12:11:44;2.13;;;0.73;;
22687;SDS011;11511;51.514;7.080;2023-05-16T12:14:11;1.67;;;0.60;;
22687;SDS011;11511;51.514;7.080;2023-05-16T12:16:41;2.15;;;0.63;;
22687;SDS011;11511;51.514;7.080;2023-05-16T12:19:14;5.13;;;0.80;;
22687;SDS011;11511;51.514;7.080;2023-05-16T12:21:41;3.70;;;0.77;;
22687;SDS011;11511;51.514;7.080;2023-05-16T12:24:12;3.20;;;0.70;;
22687;SDS011;11511;51.514;7.080;2023-05-16T12:26:41;5.63;;;0.98;;
22687;SDS011;11511;51.514;7.080;2023-05-16T12:29:14;4.25;;;1.00;;
22687;SDS011;11511;51.514;7.080;2023-05-16T12:32:05;3.65;;;0.88;;
22687;SDS011;11511;51.514;7.080;2023-05-16T12:34:51;3.45;;;0.80;;
22687;SDS011;11511;51.514;7.080;2023-05-16T12:37:21;3.78;;;0.80;;
22687;SDS011;11511;51.514;7.080;2023-05-16T12:39:59;3.70;;;0.90;;
22687;SDS011;11511;51.514;7.080;2023-05-16T12:42:37;1.92;;;0.80;;
22687;SDS011;11511;51.514;7.080;2023-05-16T12:45:17;2.28;;;0.70;;
22687;SDS011;11511;51.514;7.080;2023-05-16T12:47:44;4.07;;;0.60;;
22687;SDS011;11511;51.514;7.080;2023-05-16T12:50:13;2.70;;;0.80;;
22687;SDS011;11511;51.514;7.080;2023-05-16T12:52:46;4.68;;;0.90;;
22687;SDS011;11511;51.514;7.080;2023-05-16T12:55:21;3.85;;;1.08;;
22687;SDS011;11511;51.514;7.080;2023-05-16T12:57:51;4.38;;;0.95;;
22687;SDS011;11511;51.514;7.080;2023-05-16T13:00:23;3.45;;;0.80;;
22687;SDS011;11511;51.514;7.080;2023-05-16T13:02:49;6.85;;;0.80;;
22687;SDS011;11511;51.514;7.080;2023-05-16T13:05:18;3.63;;;0.70;;
22687;SDS011;11511;51.514;7.080;2023-05-16T13:07:47;2.13;;;0.73;;
22687;SDS011;11511;51.514;7.080;2023-05-16T13:10:18;3.15;;;0.82;;
22687;SDS011;11511;51.514;7.080;2023-05-16T13:12:45;2.88;;;0.80;;
22687;SDS011;11511;51.514;7.080;2023-05-16T13:15:12;3.72;;;0.98;;
22687;SDS011;11511;51.514;7.080;2023-05-16T13:17:39;3.72;;;0.90;;
22687;SDS011;11511;51.514;7.080;2023-05-16T13:20:08;2.35;;;0.60;;
22687;SDS011;11511;51.514;7.080;2023-05-16T13:22:40;3.80;;;0.90;;
22687;SDS011;11511;51.514;7.080;2023-05-16T13:25:20;2.75;;;0.90;;
22687;SDS011;11511;51.514;7.080;2023-05-16T13:27:53;2.55;;;0.70;;
22687;SDS011;11511;51.514;7.080;2023-05-16T13:30:22;3.75;;;1.25;;
22687;SDS011;11511;51.514;7.080;2023-05-16T13:32:49;6.43;;;0.80;;
22687;SDS011;11511;51.514;7.080;2023-05-16T13:35:22;2.03;;;0.85;;
22687;SDS011;11511;51.514;7.080;2023-05-16T13:37:52;3.97;;;0.88;;
22687;SDS011;11511;51.514;7.080;2023-05-16T13:40:21;4.57;;;0.80;;
22687;SDS011;11511;51.514;7.080;2023-05-16T13:42:55;3.30;;;1.03;;
22687;SDS011;11511;51.514;7.080;2023-05-16T13:45:30;2.55;;;0.70;;
22687;SDS011;11511;51.514;7.080;2023-05-16T13:47:58;5.60;;;1.08;;
22687;SDS011;11511;51.514;7.080;2023-05-16T13:50:25;8.80;;;0.90;;
22687;SDS011;11511;51.514;7.080;2023-05-16T13:53:01;3.05;;;0.82;;
22687;SDS011;11511;51.514;7.080;2023-05-16T13:55:28;4.47;;;0.95;;
22687;SDS011;11511;51.514;7.080;2023-05-16T13:58:04;4.10;;;0.88;;
22687;SDS011;11511;51.514;7.080;2023-05-16T14:00:34;3.45;;;0.80;;
22687;SDS011;11511;51.514;7.080;2023-05-16T14:03:08;3.83;;;1.00;;
22687;SDS011;11511;51.514;7.080;2023-05-16T14:05:35;3.45;;;0.85;;
22687;SDS011;11511;51.514;7.080;2023-05-16T14:08:09;2.55;;;0.70;;
22687;SDS011;11511;51.514;7.080;2023-05-16T14:10:41;2.97;;;0.90;;
22687;SDS011;11511;51.514;7.080;2023-05-16T14:13:14;4.05;;;0.88;;
22687;SDS011;11511;51.514;7.080;2023-05-16T14:15:43;5.07;;;1.10;;
22687;SDS011;11511;51.514;7.080;2023-05-16T14:18:08;3.13;;;0.90;;
22687;SDS011;11511;51.514;7.080;2023-05-16T14:20:40;3.00;;;0.90;;
22687;SDS011;11511;51.514;7.080;2023-05-16T14:23:06;3.58;;;1.15;;
22687;SDS011;11511;51.514;7.080;2023-05-16T14:25:32;2.28;;;0.98;;
22687;SDS011;11511;51.514;7.080;2023-05-16T14:28:01;3.10;;;0.95;;
22687;SDS011;11511;51.514;7.080;2023-05-16T14:30:27;3.20;;;1.10;;
22687;SDS011;11511;51.514;7.080;2023-05-16T14:32:53;5.57;;;1.10;;
22687;SDS011;11511;51.514;7.080;2023-05-16T14:35:25;4.68;;;1.10;;
22687;SDS011;11511;51.514;7.080;2023-05-16T14:37:52;5.65;;;1.10;;
22687;SDS011;11511;51.514;7.080;2023-05-16T14:40:18;7.13;;;1.25;;
22687;SDS011;11511;51.514;7.080;2023-05-16T14:42:45;4.55;;;1.20;;
22687;SDS011;11511;51.514;7.080;2023-05-16T14:48:04;4.20;;;1.10;;
22687;SDS011;11511;51.514;7.080;2023-05-16T14:50:33;3.47;;;1.05;;
22687;SDS011;11511;51.514;7.080;2023-05-16T14:52:59;6.32;;;1.17;;
22687;SDS011;11511;51.514;7.080;2023-05-16T14:55:25;3.42;;;1.33;;
22687;SDS011;11511;51.514;7.080;2023-05-16T14:57:54;4.90;;;1.40;;
22687;SDS011;11511;51.514;7.080;2023-05-16T15:00:22;4.55;;;1.20;;
22687;SDS011;11511;51.514;7.080;2023-05-16T15:02:50;4.13;;;1.38;;
22687;SDS011;11511;51.514;7.080;2023-05-16T15:05:18;2.58;;;1.05;;
22687;SDS011;11511;51.514;7.080;2023-05-16T15:07:49;5.32;;;1.30;;
22687;SDS011;11511;51.514;7.080;2023-05-16T15:10:15;3.63;;;1.17;;
22687;SDS011;11511;51.514;7.080;2023-05-16T15:12:43;7.82;;;1.20;;
22687;SDS011;11511;51.514;7.080;2023-05-16T15:15:09;3.65;;;1.23;;
22687;SDS011;11511;51.514;7.080;2023-05-16T15:17:39;3.28;;;1.30;;
22687;SDS011;11511;51.514;7.080;2023-05-16T15:23:02;6.85;;;1.42;;
22687;SDS011;11511;51.514;7.080;2023-05-16T15:25:29;7.85;;;1.30;;
22687;SDS011;11511;51.514;7.080;2023-05-16T15:27:55;4.85;;;1.30;;
22687;SDS011;11511;51.514;7.080;2023-05-16T15:30:21;3.92;;;1.15;;
22687;SDS011;11511;51.514;7.080;2023-05-16T15:32:53;2.25;;;0.85;;
22687;SDS011;11511;51.514;7.080;2023-05-16T15:35:20;5.63;;;1.27;;
22687;SDS011;11511;51.514;7.080;2023-05-16T15:37:45;4.07;;;1.17;;
22687;SDS011;11511;51.514;7.080;2023-05-16T15:40:12;4.80;;;1.33;;
22687;SDS011;11511;51.514;7.080;2023-05-16T15:42:38;6.47;;;1.50;;
22687;SDS011;11511;51.514;7.080;2023-05-16T15:45:09;2.97;;;0.90;;
22687;SDS011;11511;51.514;7.080;2023-05-16T15:47:36;4.60;;;1.20;;
22687;SDS011;11511;51.514;7.080;2023-05-16T15:50:06;4.22;;;1.27;;
22687;SDS011;11511;51.514;7.080;2023-05-16T15:52:32;5.35;;;1.17;;
22687;SDS011;11511;51.514;7.080;2023-05-16T15:55:02;3.80;;;1.20;;
22687;SDS011;11511;51.514;7.080;2023-05-16T15:57:29;5.57;;;1.45;;
22687;SDS011;11511;51.514;7.080;2023-05-16T15:59:56;5.45;;;1.40;;
22687;SDS011;11511;51.514;7.080;2023-05-16T16:02:24;3.67;;;1.33;;
22687;SDS011;11511;51.514;7.080;2023-05-16T16:05:04;8.23;;;1.70;;
22687;SDS011;11511;51.514;7.080;2023-05-16T16:10:53;6.35;;;1.60;;
22687;SDS011;11511;51.514;7.080;2023-05-16T16:13:22;3.28;;;1.52;;
22687;SDS011;11511;51.514;7.080;2023-05-16T16:15:49;6.40;;;1.80;;
22687;SDS011;11511;51.514;7.080;2023-05-16T16:18:16;5.15;;;1.65;;
22687;SDS011;11511;51.514;7.080;2023-05-16T16:20:45;5.72;;;1.95;;
22687;SDS011;11511;51.514;7.080;2023-05-16T16:29:38;3.88;;;1.42;;
22687;SDS011;11511;51.514;7.080;2023-05-16T16:32:04;5.88;;;1.88;;
22687;SDS011;11511;51.514;7.080;2023-05-16T16:34:30;4.03;;;1.85;;
22687;SDS011;11511;51.514;7.080;2023-05-16T16:36:55;8.82;;;1.83;;
22687;SDS011;11511;51.514;7.080;2023-05-16T16:39:21;3.42;;;1.50;;
22687;SDS011;11511;51.514;7.080;2023-05-16T16:41:50;5.68;;;1.80;;
22687;SDS011;11511;51.514;7.080;2023-05-16T16:44:18;4.15;;;1.70;;
22687;SDS011;11511;51.514;7.080;2023-05-16T16:46:44;4.80;;;1.92;;
22687;SDS011;11511;51.514;7.080;2023-05-16T16:49:11;3.08;;;1.50;;
22687;SDS011;11511;51.514;7.080;2023-05-16T16:51:37;6.15;;;1.70;;
22687;SDS011;11511;51.514;7.080;2023-05-16T16:54:03;4.88;;;1.67;;
22687;SDS011;11511;51.514;7.080;2023-05-16T16:56:30;6.32;;;2.17;;
22687;SDS011;11511;51.514;7.080;2023-05-16T16:58:55;4.93;;;1.50;;
22687;SDS011;11511;51.514;7.080;2023-05-16T17:01:31;7.03;;;1.85;;
22687;SDS011;11511;51.514;7.080;2023-05-16T17:03:57;6.32;;;1.67;;
22687;SDS011;11511;51.514;7.080;2023-05-16T17:06:25;5.00;;;1.98;;
22687;SDS011;11511;51.514;7.080;2023-05-16T17:08:51;6.43;;;1.90;;
22687;SDS011;11511;51.514;7.080;2023-05-16T17:11:17;6.10;;;2.15;;
22687;SDS011;11511;51.514;7.080;2023-05-16T17:13:47;4.55;;;2.08;;
22687;SDS011;11511;51.514;7.080;2023-05-16T17:16:13;3.83;;;1.67;;
22687;SDS011;11511;51.514;7.080;2023-05-16T17:18:46;6.88;;;1.80;;